sensor_id;sensor_type;location;lat;lon;timestamp;P1;P2;P0
56069;PMS5003;41944;52.078;-0.058;2022-11-03T00:01:44;1;1;
56069;PMS5003;41944;52.078;-0.058;2022-11-03T00:04:13;1;1;
56069;PMS5003;41944;52.078;-0.058;2022-11-03T00:06:43;0;0;
56069;PMS5003;41944;52.078;-0.058;2022-11-03T00:09:13;2;0;
56069;PMS5003;41944;52.078;-0.058;2022-11-03T00:11:42;1;1;
56069;PMS5003;41944;52.078;-0.058;2022-11-03T00:14:11;0;0;
56069;PMS5003;41944;52.078;-0.058;2022-11-03T00:16:39;1;1;
56069;PMS5003;41944;52.078;-0.058;2022-11-03T00:19:07;2;1;
56069;PMS5003;41944;52.078;-0.058;2022-11-03T00:21:36;1;1;
56069;PMS5003;41944;52.078;-0.058;2022-11-03T00:24:04;4;1;
56069;PMS5003;41944;52.078;-0.058;2022-11-03T00:26:32;2;1;
56069;PMS5003;41944;52.078;-0.058;2022-11-03T00:29:04;1;1;
56069;PMS5003;41944;52.078;-0.058;2022-11-03T00:31:34;0;0;
56069;PMS5003;41944;52.078;-0.058;2022-11-03T00:34:02;3;0;
56069;PMS5003;41944;52.078;-0.058;2022-11-03T00:36:31;0;0;
56069;PMS5003;41944;52.078;-0.058;2022-11-03T00:39:00;1;1;
56069;PMS5003;41944;52.078;-0.058;2022-11-03T00:41:28;1;1;
56069;PMS5003;41944;52.078;-0.058;2022-11-03T00:43:56;1;1;
56069;PMS5003;41944;52.078;-0.058;2022-11-03T00:46:24;3;0;
56069;PMS5003;41944;52.078;-0.058;2022-11-03T00:48:52;3;1;
56069;PMS5003;41944;52.078;-0.058;2022-11-03T00:51:21;0;0;
56069;PMS5003;41944;52.078;-0.058;2022-11-03T00:53:50;1;0;
56069;PMS5003;41944;52.078;-0.058;2022-11-03T00:56:20;1;1;
56069;PMS5003;41944;52.078;-0.058;2022-11-03T00:58:49;2;1;
56069;PMS5003;41944;52.078;-0.058;2022-11-03T01:01:18;3;1;
56069;PMS5003;41944;52.078;-0.058;2022-11-03T01:03:47;1;0;
56069;PMS5003;41944;52.078;-0.058;2022-11-03T01:06:17;1;1;
56069;PMS5003;41944;52.078;-0.058;2022-11-03T01:08:45;2;0;
56069;PMS5003;41944;52.078;-0.058;2022-11-03T01:11:13;2;1;
56069;PMS5003;41944;52.078;-0.058;2022-11-03T01:13:42;5;1;
56069;PMS5003;41944;52.078;-0.058;2022-11-03T01:16:09;4;1;
56069;PMS5003;41944;52.078;-0.058;2022-11-03T01:18:36;0;0;
56069;PMS5003;41944;52.078;-0.058;2022-11-03T01:21:04;1;1;
56069;PMS5003;41944;52.078;-0.058;2022-11-03T01:23:33;2;1;
56069;PMS5003;41944;52.078;-0.058;2022-11-03T01:26:03;1;1;
56069;PMS5003;41944;52.078;-0.058;2022-11-03T01:28:32;3;0;
56069;PMS5003;41944;52.078;-0.058;2022-11-03T01:31:02;2;2;
56069;PMS5003;41944;52.078;-0.058;2022-11-03T01:33:30;2;2;
56069;PMS5003;41944;52.078;-0.058;2022-11-03T01:35:58;0;0;
56069;PMS5003;41944;52.078;-0.058;2022-11-03T01:38:26;5;2;
56069;PMS5003;41944;52.078;-0.058;2022-11-03T01:40:56;2;1;
56069;PMS5003;41944;52.078;-0.058;2022-11-03T01:43:24;1;1;
56069;PMS5003;41944;52.078;-0.058;2022-11-03T01:45:52;5;1;
56069;PMS5003;41944;52.078;-0.058;2022-11-03T01:48:26;3;1;
56069;PMS5003;41944;52.078;-0.058;2022-11-03T01:50:54;1;1;
56069;PMS5003;41944;52.078;-0.058;2022-11-03T01:53:22;2;0;
56069;PMS5003;41944;52.078;-0.058;2022-11-03T01:55:49;3;1;
56069;PMS5003;41944;52.078;-0.058;2022-11-03T01:58:18;1;1;
56069;PMS5003;41944;52.078;-0.058;2022-11-03T02:00:48;0;0;
56069;PMS5003;41944;52.078;-0.058;2022-11-03T02:03:19;3;1;
56069;PMS5003;41944;52.078;-0.058;2022-11-03T02:05:48;4;1;
56069;PMS5003;41944;52.078;-0.058;2022-11-03T02:08:18;2;1;
56069;PMS5003;41944;52.078;-0.058;2022-11-03T02:10:50;2;1;
56069;PMS5003;41944;52.078;-0.058;2022-11-03T02:13:19;3;2;
56069;PMS5003;41944;52.078;-0.058;2022-11-03T02:15:49;1;1;
56069;PMS5003;41944;52.078;-0.058;2022-11-03T02:18:19;2;0;
56069;PMS5003;41944;52.078;-0.058;2022-11-03T02:20:52;1;0;
56069;PMS5003;41944;52.078;-0.058;2022-11-03T02:23:29;2;1;
56069;PMS5003;41944;52.078;-0.058;2022-11-03T02:26:05;0;0;
56069;PMS5003;41944;52.078;-0.058;2022-11-03T02:28:34;3;2;
56069;PMS5003;41944;52.078;-0.058;2022-11-03T02:31:10;1;1;
56069;PMS5003;41944;52.078;-0.058;2022-11-03T02:33:43;3;2;
56069;PMS5003;41944;52.078;-0.058;2022-11-03T02:36:18;3;3;
56069;PMS5003;41944;52.078;-0.058;2022-11-03T02:38:51;1;1;
56069;PMS5003;41944;52.078;-0.058;2022-11-03T02:41:22;0;0;
56069;PMS5003;41944;52.078;-0.058;2022-11-03T02:43:51;5;4;
56069;PMS5003;41944;52.078;-0.058;2022-11-03T02:46:22;5;2;
56069;PMS5003;41944;52.078;-0.058;2022-11-03T02:48:52;2;2;
56069;PMS5003;41944;52.078;-0.058;2022-11-03T02:51:20;1;1;
56069;PMS5003;41944;52.078;-0.058;2022-11-03T02:53:50;1;1;
56069;PMS5003;41944;52.078;-0.058;2022-11-03T02:56:29;1;0;
56069;PMS5003;41944;52.078;-0.058;2022-11-03T02:59:00;1;1;
56069;PMS5003;41944;52.078;-0.058;2022-11-03T03:01:32;3;2;
56069;PMS5003;41944;52.078;-0.058;2022-11-03T03:04:03;7;3;
56069;PMS5003;41944;52.078;-0.058;2022-11-03T03:06:35;1;1;
56069;PMS5003;41944;52.078;-0.058;2022-11-03T03:09:06;2;1;
56069;PMS5003;41944;52.078;-0.058;2022-11-03T03:11:40;4;3;
56069;PMS5003;41944;52.078;-0.058;2022-11-03T03:14:10;0;0;
56069;PMS5003;41944;52.078;-0.058;2022-11-03T03:16:41;5;1;
56069;PMS5003;41944;52.078;-0.058;2022-11-03T03:19:17;2;2;
56069;PMS5003;41944;52.078;-0.058;2022-11-03T03:21:56;6;3;
56069;PMS5003;41944;52.078;-0.058;2022-11-03T03:24:32;4;0;
56069;PMS5003;41944;52.078;-0.058;2022-11-03T03:27:04;6;3;
56069;PMS5003;41944;52.078;-0.058;2022-11-03T03:29:37;2;2;
56069;PMS5003;41944;52.078;-0.058;2022-11-03T03:32:08;5;1;
56069;PMS5003;41944;52.078;-0.058;2022-11-03T03:34:39;2;1;
56069;PMS5003;41944;52.078;-0.058;2022-11-03T03:37:09;3;1;
56069;PMS5003;41944;52.078;-0.058;2022-11-03T03:39:41;1;1;
56069;PMS5003;41944;52.078;-0.058;2022-11-03T03:42:14;2;2;
56069;PMS5003;41944;52.078;-0.058;2022-11-03T03:44:43;5;2;
56069;PMS5003;41944;52.078;-0.058;2022-11-03T03:47:13;8;1;
56069;PMS5003;41944;52.078;-0.058;2022-11-03T03:49:44;5;2;
56069;PMS5003;41944;52.078;-0.058;2022-11-03T03:52:12;3;2;
56069;PMS5003;41944;52.078;-0.058;2022-11-03T03:54:40;3;1;
56069;PMS5003;41944;52.078;-0.058;2022-11-03T03:57:08;1;1;
56069;PMS5003;41944;52.078;-0.058;2022-11-03T03:59:40;2;2;
56069;PMS5003;41944;52.078;-0.058;2022-11-03T04:02:07;6;1;
56069;PMS5003;41944;52.078;-0.058;2022-11-03T04:04:35;2;2;
56069;PMS5003;41944;52.078;-0.058;2022-11-03T04:07:03;5;4;
56069;PMS5003;41944;52.078;-0.058;2022-11-03T04:09:31;6;4;
56069;PMS5003;41944;52.078;-0.058;2022-11-03T04:11:58;3;2;
56069;PMS5003;41944;52.078;-0.058;2022-11-03T04:14:26;3;1;
56069;PMS5003;41944;52.078;-0.058;2022-11-03T04:16:53;3;1;
56069;PMS5003;41944;52.078;-0.058;2022-11-03T04:19:21;3;2;
56069;PMS5003;41944;52.078;-0.058;2022-11-03T04:21:48;2;2;
56069;PMS5003;41944;52.078;-0.058;2022-11-03T04:24:15;4;2;
56069;PMS5003;41944;52.078;-0.058;2022-11-03T04:26:42;1;1;
56069;PMS5003;41944;52.078;-0.058;2022-11-03T04:29:10;2;2;
56069;PMS5003;41944;52.078;-0.058;2022-11-03T04:31:38;6;5;
56069;PMS5003;41944;52.078;-0.058;2022-11-03T04:34:08;6;2;
56069;PMS5003;41944;52.078;-0.058;2022-11-03T04:36:37;1;1;
56069;PMS5003;41944;52.078;-0.058;2022-11-03T04:39:08;2;2;
56069;PMS5003;41944;52.078;-0.058;2022-11-03T04:41:42;6;1;
56069;PMS5003;41944;52.078;-0.058;2022-11-03T04:44:10;2;0;
56069;PMS5003;41944;52.078;-0.058;2022-11-03T04:46:40;5;2;
56069;PMS5003;41944;52.078;-0.058;2022-11-03T04:49:09;5;3;
56069;PMS5003;41944;52.078;-0.058;2022-11-03T04:51:42;2;2;
56069;PMS5003;41944;52.078;-0.058;2022-11-03T04:54:12;4;2;
56069;PMS5003;41944;52.078;-0.058;2022-11-03T04:56:43;5;1;
56069;PMS5003;41944;52.078;-0.058;2022-11-03T04:59:12;3;1;
56069;PMS5003;41944;52.078;-0.058;2022-11-03T05:01:41;4;2;
56069;PMS5003;41944;52.078;-0.058;2022-11-03T05:04:11;3;3;
56069;PMS5003;41944;52.078;-0.058;2022-11-03T05:06:39;6;2;
56069;PMS5003;41944;52.078;-0.058;2022-11-03T05:09:10;1;1;
56069;PMS5003;41944;52.078;-0.058;2022-11-03T05:11:41;2;2;
56069;PMS5003;41944;52.078;-0.058;2022-11-03T05:14:13;7;6;
56069;PMS5003;41944;52.078;-0.058;2022-11-03T05:16:42;4;2;
56069;PMS5003;41944;52.078;-0.058;2022-11-03T05:19:11;2;0;
56069;PMS5003;41944;52.078;-0.058;2022-11-03T05:21:44;4;2;
56069;PMS5003;41944;52.078;-0.058;2022-11-03T05:24:12;6;4;
56069;PMS5003;41944;52.078;-0.058;2022-11-03T05:26:39;1;1;
56069;PMS5003;41944;52.078;-0.058;2022-11-03T05:29:09;2;1;
56069;PMS5003;41944;52.078;-0.058;2022-11-03T05:31:41;2;2;
56069;PMS5003;41944;52.078;-0.058;2022-11-03T05:34:19;2;2;
56069;PMS5003;41944;52.078;-0.058;2022-11-03T05:37:01;3;2;
56069;PMS5003;41944;52.078;-0.058;2022-11-03T05:39:48;2;2;
56069;PMS5003;41944;52.078;-0.058;2022-11-03T05:42:19;5;4;
56069;PMS5003;41944;52.078;-0.058;2022-11-03T05:44:53;3;3;
56069;PMS5003;41944;52.078;-0.058;2022-11-03T05:47:22;5;2;
56069;PMS5003;41944;52.078;-0.058;2022-11-03T05:49:53;3;2;
56069;PMS5003;41944;52.078;-0.058;2022-11-03T05:52:26;1;1;
56069;PMS5003;41944;52.078;-0.058;2022-11-03T05:54:55;4;2;
56069;PMS5003;41944;52.078;-0.058;2022-11-03T05:57:24;2;2;
56069;PMS5003;41944;52.078;-0.058;2022-11-03T05:59:55;2;2;
56069;PMS5003;41944;52.078;-0.058;2022-11-03T06:02:27;2;2;
56069;PMS5003;41944;52.078;-0.058;2022-11-03T06:05:02;5;1;
56069;PMS5003;41944;52.078;-0.058;2022-11-03T06:07:36;5;0;
56069;PMS5003;41944;52.078;-0.058;2022-11-03T06:10:04;4;3;
56069;PMS5003;41944;52.078;-0.058;2022-11-03T06:12:49;4;2;
56069;PMS5003;41944;52.078;-0.058;2022-11-03T06:15:23;5;3;
56069;PMS5003;41944;52.078;-0.058;2022-11-03T06:17:55;2;2;
56069;PMS5003;41944;52.078;-0.058;2022-11-03T06:20:24;1;1;
56069;PMS5003;41944;52.078;-0.058;2022-11-03T06:22:51;7;2;
56069;PMS5003;41944;52.078;-0.058;2022-11-03T06:25:23;6;3;
56069;PMS5003;41944;52.078;-0.058;2022-11-03T06:27:58;9;1;
56069;PMS5003;41944;52.078;-0.058;2022-11-03T06:30:29;3;2;
56069;PMS5003;41944;52.078;-0.058;2022-11-03T06:32:59;2;1;
56069;PMS5003;41944;52.078;-0.058;2022-11-03T06:35:33;4;2;
56069;PMS5003;41944;52.078;-0.058;2022-11-03T06:38:01;2;2;
56069;PMS5003;41944;52.078;-0.058;2022-11-03T06:40:32;3;0;
56069;PMS5003;41944;52.078;-0.058;2022-11-03T06:43:07;5;2;
56069;PMS5003;41944;52.078;-0.058;2022-11-03T06:45:41;2;2;
56069;PMS5003;41944;52.078;-0.058;2022-11-03T06:48:14;1;1;
56069;PMS5003;41944;52.078;-0.058;2022-11-03T06:50:49;2;1;
56069;PMS5003;41944;52.078;-0.058;2022-11-03T06:53:20;6;3;
56069;PMS5003;41944;52.078;-0.058;2022-11-03T06:55:50;3;2;
56069;PMS5003;41944;52.078;-0.058;2022-11-03T06:58:22;4;2;
56069;PMS5003;41944;52.078;-0.058;2022-11-03T07:00:53;4;1;
56069;PMS5003;41944;52.078;-0.058;2022-11-03T07:03:23;3;2;
56069;PMS5003;41944;52.078;-0.058;2022-11-03T07:05:55;2;2;
56069;PMS5003;41944;52.078;-0.058;2022-11-03T07:08:23;10;5;
56069;PMS5003;41944;52.078;-0.058;2022-11-03T07:10:56;3;2;
56069;PMS5003;41944;52.078;-0.058;2022-11-03T07:13:27;4;2;
56069;PMS5003;41944;52.078;-0.058;2022-11-03T07:15:56;2;2;
56069;PMS5003;41944;52.078;-0.058;2022-11-03T07:18:25;5;2;
56069;PMS5003;41944;52.078;-0.058;2022-11-03T07:20:56;0;0;
56069;PMS5003;41944;52.078;-0.058;2022-11-03T07:23:27;4;2;
56069;PMS5003;41944;52.078;-0.058;2022-11-03T07:25:57;4;4;
56069;PMS5003;41944;52.078;-0.058;2022-11-03T07:28:28;1;1;
56069;PMS5003;41944;52.078;-0.058;2022-11-03T07:31:00;3;1;
56069;PMS5003;41944;52.078;-0.058;2022-11-03T07:33:39;5;3;
56069;PMS5003;41944;52.078;-0.058;2022-11-03T07:36:07;10;8;
56069;PMS5003;41944;52.078;-0.058;2022-11-03T07:38:39;3;1;
56069;PMS5003;41944;52.078;-0.058;2022-11-03T07:41:10;2;2;
56069;PMS5003;41944;52.078;-0.058;2022-11-03T07:43:41;5;2;
56069;PMS5003;41944;52.078;-0.058;2022-11-03T07:46:12;5;4;
56069;PMS5003;41944;52.078;-0.058;2022-11-03T07:48:46;4;2;
56069;PMS5003;41944;52.078;-0.058;2022-11-03T07:51:15;8;5;
56069;PMS5003;41944;52.078;-0.058;2022-11-03T07:53:47;3;3;
56069;PMS5003;41944;52.078;-0.058;2022-11-03T07:56:17;4;1;
56069;PMS5003;41944;52.078;-0.058;2022-11-03T07:58:47;6;2;
56069;PMS5003;41944;52.078;-0.058;2022-11-03T08:01:20;6;4;
56069;PMS5003;41944;52.078;-0.058;2022-11-03T08:03:51;8;5;
56069;PMS5003;41944;52.078;-0.058;2022-11-03T08:06:21;8;4;
56069;PMS5003;41944;52.078;-0.058;2022-11-03T08:08:49;3;3;
56069;PMS5003;41944;52.078;-0.058;2022-11-03T08:11:16;4;3;
56069;PMS5003;41944;52.078;-0.058;2022-11-03T08:13:44;8;2;
56069;PMS5003;41944;52.078;-0.058;2022-11-03T08:16:12;3;2;
56069;PMS5003;41944;52.078;-0.058;2022-11-03T08:18:39;1;1;
56069;PMS5003;41944;52.078;-0.058;2022-11-03T08:21:07;3;2;
56069;PMS5003;41944;52.078;-0.058;2022-11-03T08:23:35;5;3;
56069;PMS5003;41944;52.078;-0.058;2022-11-03T08:26:03;9;3;
56069;PMS5003;41944;52.078;-0.058;2022-11-03T08:28:31;6;3;
56069;PMS5003;41944;52.078;-0.058;2022-11-03T08:30:59;8;6;
56069;PMS5003;41944;52.078;-0.058;2022-11-03T08:33:27;4;4;
56069;PMS5003;41944;52.078;-0.058;2022-11-03T08:35:54;5;3;
56069;PMS5003;41944;52.078;-0.058;2022-11-03T08:38:22;1;1;
56069;PMS5003;41944;52.078;-0.058;2022-11-03T08:40:50;4;2;
56069;PMS5003;41944;52.078;-0.058;2022-11-03T08:43:17;5;2;
56069;PMS5003;41944;52.078;-0.058;2022-11-03T08:45:45;7;4;
56069;PMS5003;41944;52.078;-0.058;2022-11-03T08:48:13;3;3;
56069;PMS5003;41944;52.078;-0.058;2022-11-03T08:50:40;2;2;
56069;PMS5003;41944;52.078;-0.058;2022-11-03T08:53:08;29;26;
56069;PMS5003;41944;52.078;-0.058;2022-11-03T08:55:36;11;6;
56069;PMS5003;41944;52.078;-0.058;2022-11-03T08:58:04;10;9;
56069;PMS5003;41944;52.078;-0.058;2022-11-03T09:00:31;2;2;
56069;PMS5003;41944;52.078;-0.058;2022-11-03T09:02:59;3;2;
56069;PMS5003;41944;52.078;-0.058;2022-11-03T09:05:27;4;2;
56069;PMS5003;41944;52.078;-0.058;2022-11-03T09:07:54;3;2;
56069;PMS5003;41944;52.078;-0.058;2022-11-03T09:10:22;3;2;
56069;PMS5003;41944;52.078;-0.058;2022-11-03T09:12:49;1;1;
56069;PMS5003;41944;52.078;-0.058;2022-11-03T09:15:17;6;3;
56069;PMS5003;41944;52.078;-0.058;2022-11-03T09:17:45;3;2;
56069;PMS5003;41944;52.078;-0.058;2022-11-03T09:20:13;3;1;
56069;PMS5003;41944;52.078;-0.058;2022-11-03T09:22:40;1;1;
56069;PMS5003;41944;52.078;-0.058;2022-11-03T09:25:08;3;2;
56069;PMS5003;41944;52.078;-0.058;2022-11-03T09:27:36;3;3;
56069;PMS5003;41944;52.078;-0.058;2022-11-03T09:30:04;3;3;
56069;PMS5003;41944;52.078;-0.058;2022-11-03T09:32:32;7;7;
56069;PMS5003;41944;52.078;-0.058;2022-11-03T09:35:00;3;2;
56069;PMS5003;41944;52.078;-0.058;2022-11-03T09:37:27;1;1;
56069;PMS5003;41944;52.078;-0.058;2022-11-03T09:39:55;4;3;
56069;PMS5003;41944;52.078;-0.058;2022-11-03T09:42:23;5;3;
56069;PMS5003;41944;52.078;-0.058;2022-11-03T09:44:51;12;12;
56069;PMS5003;41944;52.078;-0.058;2022-11-03T09:47:22;6;4;
56069;PMS5003;41944;52.078;-0.058;2022-11-03T09:49:54;2;2;
56069;PMS5003;41944;52.078;-0.058;2022-11-03T09:52:23;1;1;
56069;PMS5003;41944;52.078;-0.058;2022-11-03T09:54:52;2;1;
56069;PMS5003;41944;52.078;-0.058;2022-11-03T09:57:20;3;3;
56069;PMS5003;41944;52.078;-0.058;2022-11-03T09:59:49;4;3;
56069;PMS5003;41944;52.078;-0.058;2022-11-03T10:02:19;5;4;
56069;PMS5003;41944;52.078;-0.058;2022-11-03T10:04:52;5;4;
56069;PMS5003;41944;52.078;-0.058;2022-11-03T10:07:21;1;1;
56069;PMS5003;41944;52.078;-0.058;2022-11-03T10:09:51;4;4;
56069;PMS5003;41944;52.078;-0.058;2022-11-03T10:12:20;4;4;
56069;PMS5003;41944;52.078;-0.058;2022-11-03T10:14:49;0;0;
56069;PMS5003;41944;52.078;-0.058;2022-11-03T10:17:17;1;1;
56069;PMS5003;41944;52.078;-0.058;2022-11-03T10:19:47;2;2;
56069;PMS5003;41944;52.078;-0.058;2022-11-03T10:22:16;2;2;
56069;PMS5003;41944;52.078;-0.058;2022-11-03T10:24:45;12;8;
56069;PMS5003;41944;52.078;-0.058;2022-11-03T10:27:20;15;15;
56069;PMS5003;41944;52.078;-0.058;2022-11-03T10:30:03;34;32;
56069;PMS5003;41944;52.078;-0.058;2022-11-03T10:32:33;12;12;
56069;PMS5003;41944;52.078;-0.058;2022-11-03T10:35:01;8;6;
56069;PMS5003;41944;52.078;-0.058;2022-11-03T10:37:28;17;11;
56069;PMS5003;41944;52.078;-0.058;2022-11-03T10:39:56;8;5;
56069;PMS5003;41944;52.078;-0.058;2022-11-03T10:42:24;4;3;
56069;PMS5003;41944;52.078;-0.058;2022-11-03T10:44:53;20;17;
56069;PMS5003;41944;52.078;-0.058;2022-11-03T10:47:34;3;3;
56069;PMS5003;41944;52.078;-0.058;2022-11-03T10:50:10;9;7;
56069;PMS5003;41944;52.078;-0.058;2022-11-03T10:52:46;5;4;
56069;PMS5003;41944;52.078;-0.058;2022-11-03T10:55:14;4;4;
56069;PMS5003;41944;52.078;-0.058;2022-11-03T10:57:41;4;4;
56069;PMS5003;41944;52.078;-0.058;2022-11-03T11:00:12;4;4;
56069;PMS5003;41944;52.078;-0.058;2022-11-03T11:02:40;5;5;
56069;PMS5003;41944;52.078;-0.058;2022-11-03T11:05:12;12;9;
56069;PMS5003;41944;52.078;-0.058;2022-11-03T11:07:44;13;13;
56069;PMS5003;41944;52.078;-0.058;2022-11-03T11:10:12;34;29;
56069;PMS5003;41944;52.078;-0.058;2022-11-03T11:14:18;26;22;
56069;PMS5003;41944;52.078;-0.058;2022-11-03T11:16:48;26;23;
56069;PMS5003;41944;52.078;-0.058;2022-11-03T11:19:17;17;12;
56069;PMS5003;41944;52.078;-0.058;2022-11-03T11:21:58;7;4;
56069;PMS5003;41944;52.078;-0.058;2022-11-03T11:24:59;1;1;
56069;PMS5003;41944;52.078;-0.058;2022-11-03T11:28:10;2;1;
56069;PMS5003;41944;52.078;-0.058;2022-11-03T11:30:55;1;1;
56069;PMS5003;41944;52.078;-0.058;2022-11-03T11:33:24;1;0;
56069;PMS5003;41944;52.078;-0.058;2022-11-03T11:36:01;8;8;
56069;PMS5003;41944;52.078;-0.058;2022-11-03T11:38:52;3;1;
56069;PMS5003;41944;52.078;-0.058;2022-11-03T11:42:03;7;1;
56069;PMS5003;41944;52.078;-0.058;2022-11-03T11:44:43;4;4;
56069;PMS5003;41944;52.078;-0.058;2022-11-03T11:47:21;4;4;
56069;PMS5003;41944;52.078;-0.058;2022-11-03T11:49:59;2;2;
56069;PMS5003;41944;52.078;-0.058;2022-11-03T11:52:40;2;2;
56069;PMS5003;41944;52.078;-0.058;2022-11-03T11:55:15;2;2;
56069;PMS5003;41944;52.078;-0.058;2022-11-03T11:57:44;2;2;
56069;PMS5003;41944;52.078;-0.058;2022-11-03T12:00:19;3;3;
56069;PMS5003;41944;52.078;-0.058;2022-11-03T12:02:50;3;3;
56069;PMS5003;41944;52.078;-0.058;2022-11-03T12:05:19;5;4;
56069;PMS5003;41944;52.078;-0.058;2022-11-03T12:07:48;3;1;
56069;PMS5003;41944;52.078;-0.058;2022-11-03T12:10:16;3;2;
56069;PMS5003;41944;52.078;-0.058;2022-11-03T12:12:45;4;2;
56069;PMS5003;41944;52.078;-0.058;2022-11-03T12:17:31;15;10;
56069;PMS5003;41944;52.078;-0.058;2022-11-03T12:19:59;17;13;
56069;PMS5003;41944;52.078;-0.058;2022-11-03T12:22:42;2;1;
56069;PMS5003;41944;52.078;-0.058;2022-11-03T12:25:31;3;2;
56069;PMS5003;41944;52.078;-0.058;2022-11-03T12:27:59;1;1;
56069;PMS5003;41944;52.078;-0.058;2022-11-03T12:30:27;5;2;
56069;PMS5003;41944;52.078;-0.058;2022-11-03T12:32:55;24;24;
56069;PMS5003;41944;52.078;-0.058;2022-11-03T12:35:22;1;1;
56069;PMS5003;41944;52.078;-0.058;2022-11-03T12:37:50;1;1;
56069;PMS5003;41944;52.078;-0.058;2022-11-03T12:40:18;1;1;
56069;PMS5003;41944;52.078;-0.058;2022-11-03T12:42:46;2;2;
56069;PMS5003;41944;52.078;-0.058;2022-11-03T12:45:13;3;1;
56069;PMS5003;41944;52.078;-0.058;2022-11-03T12:47:41;2;2;
56069;PMS5003;41944;52.078;-0.058;2022-11-03T12:50:09;5;5;
56069;PMS5003;41944;52.078;-0.058;2022-11-03T12:52:36;7;5;
56069;PMS5003;41944;52.078;-0.058;2022-11-03T12:55:05;3;3;
56069;PMS5003;41944;52.078;-0.058;2022-11-03T12:57:33;4;4;
56069;PMS5003;41944;52.078;-0.058;2022-11-03T13:00:00;2;2;
56069;PMS5003;41944;52.078;-0.058;2022-11-03T13:02:29;2;2;
56069;PMS5003;41944;52.078;-0.058;2022-11-03T13:04:57;1;1;
56069;PMS5003;41944;52.078;-0.058;2022-11-03T13:07:24;2;2;
56069;PMS5003;41944;52.078;-0.058;2022-11-03T13:09:52;2;2;
56069;PMS5003;41944;52.078;-0.058;2022-11-03T13:12:20;1;1;
56069;PMS5003;41944;52.078;-0.058;2022-11-03T13:14:48;1;1;
56069;PMS5003;41944;52.078;-0.058;2022-11-03T13:17:15;0;0;
56069;PMS5003;41944;52.078;-0.058;2022-11-03T13:19:43;6;6;
56069;PMS5003;41944;52.078;-0.058;2022-11-03T13:22:11;1;1;
56069;PMS5003;41944;52.078;-0.058;2022-11-03T13:24:38;4;4;
56069;PMS5003;41944;52.078;-0.058;2022-11-03T13:27:06;3;3;
56069;PMS5003;41944;52.078;-0.058;2022-11-03T13:29:34;5;5;
56069;PMS5003;41944;52.078;-0.058;2022-11-03T13:32:02;2;1;
56069;PMS5003;41944;52.078;-0.058;2022-11-03T13:34:29;1;1;
56069;PMS5003;41944;52.078;-0.058;2022-11-03T13:36:57;2;2;
56069;PMS5003;41944;52.078;-0.058;2022-11-03T13:39:25;2;2;
56069;PMS5003;41944;52.078;-0.058;2022-11-03T13:41:52;1;1;
56069;PMS5003;41944;52.078;-0.058;2022-11-03T13:44:20;1;1;
56069;PMS5003;41944;52.078;-0.058;2022-11-03T13:46:48;1;1;
56069;PMS5003;41944;52.078;-0.058;2022-11-03T13:49:15;2;2;
56069;PMS5003;41944;52.078;-0.058;2022-11-03T13:51:43;4;4;
56069;PMS5003;41944;52.078;-0.058;2022-11-03T13:54:11;3;3;
56069;PMS5003;41944;52.078;-0.058;2022-11-03T13:56:39;9;9;
56069;PMS5003;41944;52.078;-0.058;2022-11-03T13:59:06;20;14;
56069;PMS5003;41944;52.078;-0.058;2022-11-03T14:01:33;8;6;
56069;PMS5003;41944;52.078;-0.058;2022-11-03T14:04:01;5;3;
56069;PMS5003;41944;52.078;-0.058;2022-11-03T14:06:29;1;1;
56069;PMS5003;41944;52.078;-0.058;2022-11-03T14:08:56;1;1;
56069;PMS5003;41944;52.078;-0.058;2022-11-03T14:11:24;1;1;
56069;PMS5003;41944;52.078;-0.058;2022-11-03T14:13:52;3;3;
56069;PMS5003;41944;52.078;-0.058;2022-11-03T14:16:19;8;6;
56069;PMS5003;41944;52.078;-0.058;2022-11-03T14:18:47;3;3;
56069;PMS5003;41944;52.078;-0.058;2022-11-03T14:21:15;4;4;
56069;PMS5003;41944;52.078;-0.058;2022-11-03T14:23:43;1;1;
56069;PMS5003;41944;52.078;-0.058;2022-11-03T14:26:10;4;4;
56069;PMS5003;41944;52.078;-0.058;2022-11-03T14:28:38;6;6;
56069;PMS5003;41944;52.078;-0.058;2022-11-03T14:31:05;11;7;
56069;PMS5003;41944;52.078;-0.058;2022-11-03T14:33:32;6;6;
56069;PMS5003;41944;52.078;-0.058;2022-11-03T14:36:00;11;11;
56069;PMS5003;41944;52.078;-0.058;2022-11-03T14:38:28;10;10;
56069;PMS5003;41944;52.078;-0.058;2022-11-03T14:40:55;19;18;
56069;PMS5003;41944;52.078;-0.058;2022-11-03T14:43:23;3;3;
56069;PMS5003;41944;52.078;-0.058;2022-11-03T14:45:51;4;3;
56069;PMS5003;41944;52.078;-0.058;2022-11-03T14:48:19;3;3;
56069;PMS5003;41944;52.078;-0.058;2022-11-03T14:50:46;4;3;
56069;PMS5003;41944;52.078;-0.058;2022-11-03T14:53:14;2;2;
56069;PMS5003;41944;52.078;-0.058;2022-11-03T14:55:41;2;0;
56069;PMS5003;41944;52.078;-0.058;2022-11-03T14:58:08;3;3;
56069;PMS5003;41944;52.078;-0.058;2022-11-03T15:00:35;6;6;
56069;PMS5003;41944;52.078;-0.058;2022-11-03T15:03:03;9;5;
56069;PMS5003;41944;52.078;-0.058;2022-11-03T15:05:31;3;3;
56069;PMS5003;41944;52.078;-0.058;2022-11-03T15:07:58;0;0;
56069;PMS5003;41944;52.078;-0.058;2022-11-03T15:10:26;1;0;
56069;PMS5003;41944;52.078;-0.058;2022-11-03T15:12:54;3;2;
56069;PMS5003;41944;52.078;-0.058;2022-11-03T15:15:21;3;2;
56069;PMS5003;41944;52.078;-0.058;2022-11-03T15:17:49;1;1;
56069;PMS5003;41944;52.078;-0.058;2022-11-03T15:20:17;1;1;
56069;PMS5003;41944;52.078;-0.058;2022-11-03T15:22:44;2;0;
56069;PMS5003;41944;52.078;-0.058;2022-11-03T15:25:12;1;1;
56069;PMS5003;41944;52.078;-0.058;2022-11-03T15:27:40;2;2;
56069;PMS5003;41944;52.078;-0.058;2022-11-03T15:30:08;22;19;
56069;PMS5003;41944;52.078;-0.058;2022-11-03T15:32:36;9;9;
56069;PMS5003;41944;52.078;-0.058;2022-11-03T15:35:04;3;3;
56069;PMS5003;41944;52.078;-0.058;2022-11-03T15:37:32;7;6;
56069;PMS5003;41944;52.078;-0.058;2022-11-03T15:39:59;4;3;
56069;PMS5003;41944;52.078;-0.058;2022-11-03T15:42:27;3;2;
56069;PMS5003;41944;52.078;-0.058;2022-11-03T15:44:54;3;2;
56069;PMS5003;41944;52.078;-0.058;2022-11-03T15:47:22;2;2;
56069;PMS5003;41944;52.078;-0.058;2022-11-03T15:49:50;4;4;
56069;PMS5003;41944;52.078;-0.058;2022-11-03T15:52:18;7;3;
56069;PMS5003;41944;52.078;-0.058;2022-11-03T15:54:45;4;3;
56069;PMS5003;41944;52.078;-0.058;2022-11-03T15:57:13;6;4;
56069;PMS5003;41944;52.078;-0.058;2022-11-03T15:59:41;5;3;
56069;PMS5003;41944;52.078;-0.058;2022-11-03T16:02:08;3;3;
56069;PMS5003;41944;52.078;-0.058;2022-11-03T16:04:35;3;3;
56069;PMS5003;41944;52.078;-0.058;2022-11-03T16:07:03;3;3;
56069;PMS5003;41944;52.078;-0.058;2022-11-03T16:09:31;10;9;
56069;PMS5003;41944;52.078;-0.058;2022-11-03T16:11:58;4;4;
56069;PMS5003;41944;52.078;-0.058;2022-11-03T16:14:26;2;2;
56069;PMS5003;41944;52.078;-0.058;2022-11-03T16:16:54;8;7;
56069;PMS5003;41944;52.078;-0.058;2022-11-03T16:19:22;6;5;
56069;PMS5003;41944;52.078;-0.058;2022-11-03T16:21:49;8;3;
56069;PMS5003;41944;52.078;-0.058;2022-11-03T16:24:17;4;3;
56069;PMS5003;41944;52.078;-0.058;2022-11-03T16:26:45;6;5;
56069;PMS5003;41944;52.078;-0.058;2022-11-03T16:29:13;5;3;
56069;PMS5003;41944;52.078;-0.058;2022-11-03T16:31:40;4;4;
56069;PMS5003;41944;52.078;-0.058;2022-11-03T16:34:07;25;18;
56069;PMS5003;41944;52.078;-0.058;2022-11-03T16:36:34;38;34;
56069;PMS5003;41944;52.078;-0.058;2022-11-03T16:39:02;33;28;
56069;PMS5003;41944;52.078;-0.058;2022-11-03T16:41:29;23;23;
56069;PMS5003;41944;52.078;-0.058;2022-11-03T16:43:57;27;22;
56069;PMS5003;41944;52.078;-0.058;2022-11-03T16:46:24;23;22;
56069;PMS5003;41944;52.078;-0.058;2022-11-03T16:48:52;25;20;
56069;PMS5003;41944;52.078;-0.058;2022-11-03T16:51:20;28;20;
56069;PMS5003;41944;52.078;-0.058;2022-11-03T16:53:47;22;22;